createdAt,value
2023-05-14T00:00:39.776Z,89.17
2023-05-14T00:03:08.726Z,89.60
2023-05-14T00:05:36.464Z,89.62
2023-05-14T00:08:03.901Z,90.02
2023-05-14T00:10:31.352Z,89.64
2023-05-14T00:13:02.202Z,89.82
2023-05-14T00:15:30.498Z,89.69
2023-05-14T00:17:58.904Z,89.60
2023-05-14T00:20:27.784Z,89.83
2023-05-14T00:22:55.415Z,89.78
2023-05-14T00:25:22.851Z,89.94
2023-05-14T00:27:50.335Z,90.20
2023-05-14T00:30:17.983Z,89.53
2023-05-14T00:32:46.025Z,90.16
2023-05-14T00:35:13.508Z,90.40
2023-05-14T00:37:42.347Z,90.76
2023-05-14T00:40:12.778Z,90.38
2023-05-14T00:42:40.514Z,90.17
2023-05-14T00:45:09.978Z,90.12
2023-05-14T00:47:40.639Z,90.14
2023-05-14T00:50:09.603Z,89.59
2023-05-14T00:52:38.973Z,90.50
2023-05-14T00:55:09.581Z,90.05
2023-05-14T00:57:41.147Z,89.77
2023-05-14T01:00:10.000Z,90.69
2023-05-14T01:02:37.927Z,90.46
2023-05-14T01:05:08.528Z,90.74
2023-05-14T01:07:47.501Z,90.27
2023-05-14T01:10:29.412Z,90.81
2023-05-14T01:13:09.387Z,91.34
2023-05-14T01:15:39.222Z,90.83
2023-05-14T01:18:10.048Z,90.83
2023-05-14T01:20:38.228Z,91.02
2023-05-14T01:23:07.267Z,90.85
2023-05-14T01:25:37.752Z,91.20
2023-05-14T01:28:12.525Z,90.95
2023-05-14T01:30:43.249Z,91.54
2023-05-14T01:33:14.490Z,91.74
2023-05-14T01:35:44.509Z,91.82
2023-05-14T01:38:16.371Z,91.56
2023-05-14T01:40:46.815Z,91.57
2023-05-14T01:43:15.899Z,92.20
2023-05-14T01:45:44.475Z,92.99
2023-05-14T01:48:11.877Z,93.21
2023-05-14T01:50:39.392Z,92.27
2023-05-14T01:53:06.933Z,92.50
2023-05-14T01:55:35.716Z,93.86
2023-05-14T01:58:03.188Z,95.68
2023-05-14T02:00:31.447Z,95.86
2023-05-14T02:02:59.445Z,98.95
2023-05-14T02:05:26.960Z,100.00
2023-05-14T02:07:54.457Z,100.00
2023-05-14T02:10:22.049Z,98.48
2023-05-14T02:12:50.967Z,96.39
2023-05-14T02:15:18.434Z,97.22
2023-05-14T02:17:45.953Z,96.05
2023-05-14T02:20:14.142Z,97.14
2023-05-14T02:22:42.184Z,97.25
2023-05-14T02:25:10.688Z,100.00
2023-05-14T02:27:38.247Z,100.00
2023-05-14T02:30:08.505Z,100.00
2023-05-14T02:32:36.204Z,99.74
2023-05-14T02:35:04.107Z,100.00
2023-05-14T02:37:31.598Z,100.00
2023-05-14T02:39:59.302Z,100.00
2023-05-14T02:42:26.911Z,100.00
2023-05-14T02:44:54.554Z,100.00
2023-05-14T02:47:23.386Z,100.00
2023-05-14T02:49:50.957Z,100.00
2023-05-14T02:52:18.384Z,100.00
2023-05-14T02:54:45.904Z,100.00
2023-05-14T02:57:13.517Z,100.00
2023-05-14T02:59:41.387Z,100.00
2023-05-14T03:02:09.308Z,100.00
2023-05-14T03:04:38.630Z,100.00
2023-05-14T03:07:06.558Z,100.00
2023-05-14T03:09:35.046Z,100.00
2023-05-14T03:12:04.686Z,100.00
2023-05-14T03:14:32.378Z,100.00
2023-05-14T03:16:59.923Z,100.00
2023-05-14T03:19:27.496Z,100.00
2023-05-14T03:21:56.292Z,100.00
2023-05-14T03:24:23.739Z,100.00
2023-05-14T03:26:51.261Z,100.00
2023-05-14T03:29:18.826Z,100.00
2023-05-14T03:31:46.289Z,100.00
2023-05-14T03:34:14.047Z,100.00
2023-05-14T03:36:41.541Z,100.00
2023-05-14T03:39:10.375Z,100.00
2023-05-14T03:41:38.174Z,100.00
2023-05-14T03:44:06.268Z,100.00
2023-05-14T03:46:33.917Z,100.00
2023-05-14T03:49:01.590Z,100.00
2023-05-14T03:51:29.159Z,100.00
2023-05-14T03:53:57.936Z,100.00
2023-05-14T03:56:27.111Z,100.00
2023-05-14T03:58:54.538Z,100.00
2023-05-14T04:01:22.001Z,100.00
2023-05-14T04:03:49.591Z,100.00
2023-05-14T04:06:17.104Z,100.00
2023-05-14T04:08:44.634Z,100.00
2023-05-14T04:11:12.140Z,100.00
2023-05-14T04:13:40.958Z,100.00
2023-05-14T04:16:08.526Z,100.00
2023-05-14T04:18:36.155Z,100.00
2023-05-14T04:21:03.903Z,100.00
2023-05-14T04:23:32.225Z,100.00
2023-05-14T04:26:00.001Z,100.00
2023-05-14T04:28:27.722Z,100.00
2023-05-14T04:30:56.689Z,100.00
2023-05-14T04:33:24.138Z,100.00
2023-05-14T04:35:52.105Z,100.00
2023-05-14T04:38:19.578Z,100.00
2023-05-14T04:40:47.001Z,100.00
2023-05-14T04:43:14.710Z,100.00
2023-05-14T04:45:43.055Z,100.00
2023-05-14T04:48:12.154Z,100.00
2023-05-14T04:50:39.601Z,100.00
2023-05-14T04:53:07.087Z,100.00
2023-05-14T04:55:34.554Z,100.00
2023-05-14T04:58:02.305Z,100.00
2023-05-14T05:00:30.454Z,100.00
2023-05-14T05:02:57.912Z,100.00
2023-05-14T05:05:26.871Z,100.00
2023-05-14T05:07:54.698Z,100.00
2023-05-14T05:10:22.434Z,100.00
2023-05-14T05:12:50.044Z,100.00
2023-05-14T05:15:17.579Z,100.00
2023-05-14T05:17:45.072Z,100.00
2023-05-14T05:20:13.795Z,100.00
2023-05-14T05:22:42.596Z,100.00
2023-05-14T05:25:11.998Z,100.00
2023-05-14T05:27:39.645Z,100.00
2023-05-14T05:30:08.543Z,100.00
2023-05-14T05:32:36.087Z,100.00
2023-05-14T05:35:03.984Z,100.00
2023-05-14T05:37:31.664Z,100.00
2023-05-14T05:40:00.632Z,100.00
2023-05-14T05:42:28.097Z,100.00
2023-05-14T05:44:56.173Z,98.83
2023-05-14T05:47:23.692Z,98.69
2023-05-14T05:49:51.203Z,99.21
2023-05-14T05:52:18.794Z,97.75
2023-05-14T05:54:46.303Z,97.96
2023-05-14T05:57:15.074Z,98.60
2023-05-14T05:59:42.555Z,97.44
2023-05-14T06:02:10.059Z,99.00
2023-05-14T06:04:37.674Z,96.87
2023-05-14T06:07:05.606Z,98.06
2023-05-14T06:09:33.075Z,95.67
2023-05-14T06:12:00.612Z,95.35
2023-05-14T06:14:29.486Z,95.71
2023-05-14T06:16:57.260Z,95.70
2023-05-14T06:19:24.861Z,95.17
2023-05-14T06:21:52.416Z,95.07
2023-05-14T06:24:19.972Z,95.03
2023-05-14T06:26:48.731Z,95.41
2023-05-14T06:29:16.212Z,94.80
2023-05-14T06:31:45.143Z,94.39
2023-05-14T06:34:12.641Z,92.80
2023-05-14T06:36:40.139Z,96.91
2023-05-14T06:39:07.640Z,92.58
2023-05-14T06:41:35.211Z,92.25
2023-05-14T06:44:02.634Z,91.88
2023-05-14T06:46:30.136Z,91.81
2023-05-14T06:48:59.614Z,91.05
2023-05-14T06:51:27.219Z,91.02
2023-05-14T06:53:55.681Z,89.81
2023-05-14T06:56:23.037Z,89.67
2023-05-14T06:58:50.944Z,91.06
2023-05-14T07:01:18.444Z,91.22
2023-05-14T07:03:45.976Z,95.21
2023-05-14T07:06:14.870Z,90.85
2023-05-14T07:08:45.798Z,91.63
2023-05-14T07:11:14.166Z,92.27
2023-05-14T07:13:42.072Z,91.34
2023-05-14T07:16:10.437Z,91.20
2023-05-14T07:18:38.064Z,90.61
2023-05-14T07:21:06.522Z,88.60
2023-05-14T07:23:36.461Z,86.95
2023-05-14T07:26:04.140Z,87.48
2023-05-14T07:28:31.665Z,85.82
2023-05-14T07:30:59.476Z,85.16
2023-05-14T07:33:27.501Z,85.87
2023-05-14T07:35:55.036Z,83.77
2023-05-14T07:38:22.648Z,84.46
2023-05-14T07:40:51.417Z,86.79
2023-05-14T07:43:18.886Z,86.94
2023-05-14T07:45:46.462Z,84.23
2023-05-14T07:48:14.107Z,86.89
2023-05-14T07:50:41.627Z,85.83
2023-05-14T07:53:09.172Z,86.94
2023-05-14T07:55:36.643Z,85.94
2023-05-14T07:58:05.514Z,84.06
2023-05-14T08:00:32.976Z,84.65
2023-05-14T08:03:00.935Z,84.65
2023-05-14T08:05:28.449Z,83.30
2023-05-14T08:07:55.913Z,86.47
2023-05-14T08:10:23.730Z,85.31
2023-05-14T08:12:51.395Z,84.93
2023-05-14T08:15:20.202Z,86.13
2023-05-14T08:17:47.656Z,85.52
2023-05-14T08:20:15.160Z,84.30
2023-05-14T08:22:42.645Z,85.44
2023-05-14T08:25:10.578Z,86.25
2023-05-14T08:27:38.169Z,86.19
2023-05-14T08:30:07.249Z,86.35
2023-05-14T08:32:38.216Z,87.93
2023-05-14T08:35:06.734Z,87.11
2023-05-14T08:37:34.051Z,88.54
2023-05-14T08:40:01.590Z,87.79
2023-05-14T08:42:29.993Z,88.58
2023-05-14T08:44:58.880Z,90.12
2023-05-14T08:47:26.925Z,87.77
2023-05-14T08:50:01.947Z,89.97
2023-05-14T08:52:29.718Z,88.67
2023-05-14T08:54:58.151Z,88.55
2023-05-14T08:57:26.437Z,88.96
2023-05-14T08:59:54.330Z,86.53
2023-05-14T09:02:24.657Z,85.97
2023-05-14T09:04:57.024Z,86.09
2023-05-14T09:07:24.771Z,86.42
2023-05-14T09:09:52.811Z,87.94
2023-05-14T09:12:20.717Z,85.59
2023-05-14T09:14:49.905Z,86.38
2023-05-14T09:17:17.678Z,86.60
2023-05-14T09:19:48.942Z,84.91
2023-05-14T09:22:18.779Z,86.02
2023-05-14T09:24:46.714Z,85.70
2023-05-14T09:27:20.143Z,86.67
2023-05-14T09:29:48.730Z,87.41
2023-05-14T09:32:16.211Z,85.51
2023-05-14T09:34:43.729Z,86.91
2023-05-14T09:37:11.267Z,87.40
2023-05-14T09:39:40.480Z,87.41
2023-05-14T09:42:08.450Z,86.77
2023-05-14T09:44:38.088Z,86.05
2023-05-14T09:47:06.567Z,84.70
2023-05-14T09:49:35.266Z,84.87
2023-05-14T09:52:03.753Z,84.82
2023-05-14T09:54:32.897Z,83.61
2023-05-14T09:57:01.768Z,83.67
2023-05-14T09:59:29.466Z,83.65
2023-05-14T10:01:59.151Z,83.92
2023-05-14T10:04:26.777Z,80.52
2023-05-14T10:06:54.762Z,80.53
2023-05-14T10:09:26.189Z,79.60
2023-05-14T10:11:57.428Z,79.49
2023-05-14T10:14:34.397Z,79.45
2023-05-14T10:17:02.734Z,77.54
2023-05-14T10:19:35.001Z,77.43
2023-05-14T10:22:06.067Z,79.84
2023-05-14T10:24:34.225Z,80.09
2023-05-14T10:27:02.124Z,75.49
2023-05-14T10:29:34.954Z,76.21
2023-05-14T10:32:06.238Z,75.25
2023-05-14T10:34:37.447Z,76.18
2023-05-14T10:37:07.123Z,78.32
2023-05-14T10:39:45.648Z,75.82
2023-05-14T10:42:14.240Z,78.06
2023-05-14T10:44:49.179Z,76.64
2023-05-14T10:47:17.835Z,74.53
2023-05-14T10:49:48.936Z,73.33
2023-05-14T10:52:19.145Z,73.81
2023-05-14T10:54:51.991Z,75.05
2023-05-14T10:57:20.273Z,73.83
2023-05-14T10:59:53.139Z,74.25
2023-05-14T11:02:23.075Z,71.27
2023-05-14T11:04:56.565Z,75.50
2023-05-14T11:07:28.150Z,75.78
2023-05-14T11:10:01.684Z,74.71
2023-05-14T11:12:29.461Z,75.85
2023-05-14T11:15:00.696Z,75.13
2023-05-14T11:17:29.404Z,76.42
2023-05-14T11:19:57.584Z,77.30
2023-05-14T11:22:25.645Z,75.65
2023-05-14T11:24:54.253Z,73.88
2023-05-14T11:27:22.904Z,72.30
2023-05-14T11:29:51.528Z,75.46
2023-05-14T11:32:21.249Z,73.11
2023-05-14T11:34:48.896Z,74.27
2023-05-14T11:37:17.555Z,74.37
2023-05-14T11:39:49.981Z,75.65
2023-05-14T11:42:19.364Z,77.08
2023-05-14T11:44:48.927Z,77.96
2023-05-14T11:47:18.144Z,76.99
2023-05-14T11:49:47.292Z,74.57
2023-05-14T11:52:16.050Z,75.14
2023-05-14T11:54:44.832Z,74.86
2023-05-14T11:57:13.963Z,75.33
2023-05-14T11:59:41.862Z,73.64
2023-05-14T12:02:11.593Z,73.44
2023-05-14T12:04:39.732Z,72.80
2023-05-14T12:07:13.107Z,71.69
2023-05-14T12:09:44.218Z,71.53
2023-05-14T12:12:13.604Z,71.21
2023-05-14T12:14:42.802Z,70.91
2023-05-14T12:17:15.273Z,71.21
2023-05-14T12:19:44.039Z,70.05
2023-05-14T12:22:15.669Z,71.06
2023-05-14T12:24:44.481Z,71.81
2023-05-14T12:27:11.984Z,71.90
2023-05-14T12:29:39.970Z,71.92
2023-05-14T12:32:11.026Z,72.68
2023-05-14T12:34:39.284Z,72.13
2023-05-14T12:37:07.108Z,72.22
2023-05-14T12:39:36.095Z,73.01
2023-05-14T12:42:03.690Z,72.04
2023-05-14T12:44:31.214Z,70.72
2023-05-14T12:46:58.782Z,71.91
2023-05-14T12:49:26.360Z,69.60
2023-05-14T12:52:07.736Z,71.44
2023-05-14T12:54:41.640Z,69.58
2023-05-14T12:57:10.288Z,69.55
2023-05-14T12:59:37.783Z,66.93
2023-05-14T13:02:05.310Z,68.96
2023-05-14T13:04:32.852Z,69.31
2023-05-14T13:07:00.552Z,69.70
2023-05-14T13:09:28.649Z,69.12
2023-05-14T13:11:57.504Z,69.27
2023-05-14T13:14:25.011Z,68.52
2023-05-14T13:16:52.642Z,69.39
2023-05-14T13:19:20.136Z,68.00
2023-05-14T13:21:47.704Z,69.23
2023-05-14T13:24:15.170Z,70.30
2023-05-14T13:26:44.442Z,69.47
2023-05-14T13:29:13.394Z,70.45
2023-05-14T13:31:41.241Z,69.48
2023-05-14T13:34:10.091Z,69.99
2023-05-14T13:36:39.628Z,73.08
2023-05-14T13:39:07.199Z,70.31
2023-05-14T13:41:35.650Z,67.87
2023-05-14T13:44:03.118Z,67.12
2023-05-14T13:46:32.060Z,66.52
2023-05-14T13:48:59.766Z,65.03
2023-05-14T13:51:27.317Z,67.41
2023-05-14T13:56:27.136Z,65.77
2023-05-14T13:58:54.645Z,65.26
2023-05-14T14:01:23.222Z,63.52
2023-05-14T14:03:52.284Z,63.49
2023-05-14T14:06:19.762Z,63.25
2023-05-14T14:08:47.184Z,64.20
2023-05-14T14:11:14.640Z,62.03
2023-05-14T14:13:43.726Z,64.59
2023-05-14T14:16:12.548Z,64.94
2023-05-14T14:18:40.058Z,63.89
2023-05-14T14:21:09.340Z,66.20
2023-05-14T14:23:36.909Z,66.06
2023-05-14T14:26:04.617Z,65.32
2023-05-14T14:28:32.128Z,66.38
2023-05-14T14:30:59.571Z,66.21
2023-05-14T14:33:27.252Z,65.94
2023-05-14T14:35:54.730Z,67.05
2023-05-14T14:38:23.536Z,66.20
2023-05-14T14:40:51.275Z,67.23
2023-05-14T14:43:18.790Z,66.97
2023-05-14T14:45:48.308Z,67.47
2023-05-14T14:48:24.433Z,67.13
2023-05-14T14:50:52.599Z,65.82
2023-05-14T14:53:20.128Z,68.29
2023-05-14T14:55:49.027Z,65.42
2023-05-14T14:58:16.593Z,62.64
2023-05-14T15:00:44.452Z,64.47
2023-05-14T15:03:12.464Z,65.23
2023-05-14T15:05:39.990Z,64.57
2023-05-14T15:08:07.549Z,65.68
2023-05-14T15:10:37.669Z,64.01
2023-05-14T15:13:07.589Z,64.08
2023-05-14T15:15:36.352Z,63.07
2023-05-14T15:18:04.226Z,62.70
2023-05-14T15:20:31.921Z,63.47
2023-05-14T15:22:59.435Z,62.08
2023-05-14T15:25:27.760Z,64.03
2023-05-14T15:27:55.379Z,63.10
2023-05-14T15:30:24.176Z,63.82
2023-05-14T15:32:51.777Z,64.58
2023-05-14T15:35:19.510Z,64.17
2023-05-14T15:37:46.997Z,64.16
2023-05-14T15:40:14.537Z,65.03
2023-05-14T15:42:43.701Z,63.17
2023-05-14T15:45:12.822Z,62.74
2023-05-14T15:47:42.041Z,61.64
2023-05-14T15:50:09.972Z,60.36
2023-05-14T15:52:39.019Z,60.15
2023-05-14T15:55:07.435Z,59.65
2023-05-14T15:57:35.098Z,61.90
2023-05-14T16:00:05.991Z,61.25
2023-05-14T16:02:33.550Z,63.53
2023-05-14T16:05:02.395Z,63.34
2023-05-14T16:07:29.898Z,63.50
2023-05-14T16:09:57.365Z,63.97
2023-05-14T16:12:24.807Z,64.19
2023-05-14T16:14:52.323Z,64.47
2023-05-14T16:17:19.776Z,65.48
2023-05-14T16:19:47.206Z,64.90
2023-05-14T16:22:16.120Z,63.29
2023-05-14T16:24:44.680Z,63.88
2023-05-14T16:27:12.437Z,62.58
2023-05-14T16:29:39.871Z,61.25
2023-05-14T16:32:07.806Z,58.15
2023-05-14T16:34:35.305Z,60.43
2023-05-14T16:37:02.785Z,60.16
2023-05-14T16:39:31.665Z,59.69
2023-05-14T16:41:59.158Z,59.80
2023-05-14T16:44:26.597Z,61.78
2023-05-14T16:46:54.046Z,62.84
2023-05-14T16:49:22.401Z,62.87
2023-05-14T16:51:49.947Z,63.17
2023-05-14T16:54:17.410Z,63.24
2023-05-14T16:56:47.943Z,64.19
2023-05-14T16:59:15.773Z,64.92
2023-05-14T17:01:43.787Z,63.74
2023-05-14T17:04:11.582Z,65.36
2023-05-14T17:06:39.130Z,65.86
2023-05-14T17:09:06.899Z,66.78
2023-05-14T17:11:34.366Z,67.55
2023-05-14T17:14:03.169Z,66.46
2023-05-14T17:16:30.660Z,66.06
2023-05-14T17:18:58.221Z,65.98
2023-05-14T17:21:25.856Z,67.54
2023-05-14T17:23:53.326Z,66.69
2023-05-14T17:26:21.129Z,67.74
2023-05-14T17:28:48.579Z,66.30
2023-05-14T17:31:17.402Z,66.43
2023-05-14T17:33:44.918Z,67.51
2023-05-14T17:36:12.428Z,66.44
2023-05-14T17:38:40.993Z,66.77
2023-05-14T17:41:08.474Z,65.86
2023-05-14T17:43:35.944Z,69.11
2023-05-14T17:46:03.605Z,67.59
2023-05-14T17:48:32.417Z,66.58
2023-05-14T17:50:59.926Z,67.52
2023-05-14T17:53:27.429Z,67.04
2023-05-14T17:55:54.958Z,68.63
2023-05-14T17:58:22.550Z,71.15
2023-05-14T18:00:50.024Z,70.98
2023-05-14T18:03:20.115Z,70.70
2023-05-14T18:05:49.119Z,71.19
2023-05-14T18:08:16.577Z,69.80
2023-05-14T18:10:46.882Z,71.05
2023-05-14T18:13:14.378Z,71.55
2023-05-14T18:15:41.967Z,72.43
2023-05-14T18:18:09.474Z,72.93
2023-05-14T18:20:37.174Z,74.10
2023-05-14T18:23:05.976Z,74.64
2023-05-14T18:25:33.449Z,75.60
2023-05-14T18:28:00.933Z,76.92
2023-05-14T18:30:28.399Z,75.29
2023-05-14T18:32:55.888Z,75.85
2023-05-14T18:35:23.409Z,75.83
2023-05-14T18:37:52.990Z,76.59
2023-05-14T18:40:22.060Z,77.27
2023-05-14T18:42:49.515Z,78.10
2023-05-14T18:45:17.194Z,78.49
2023-05-14T18:47:44.801Z,78.62
2023-05-14T18:50:12.492Z,77.76
2023-05-14T18:52:39.971Z,79.13
2023-05-14T18:55:08.263Z,80.12
2023-05-14T18:57:37.394Z,81.47
2023-05-14T19:00:06.120Z,81.65
2023-05-14T19:02:33.891Z,81.22
2023-05-14T19:05:01.492Z,83.60
2023-05-14T19:07:30.212Z,83.35
2023-05-14T19:09:57.715Z,84.31
2023-05-14T19:12:25.189Z,85.67
2023-05-14T19:14:53.961Z,87.78
2023-05-14T19:17:22.052Z,90.63
2023-05-14T19:19:49.599Z,87.59
2023-05-14T19:22:17.329Z,86.54
2023-05-14T19:24:44.788Z,87.92
2023-05-14T19:27:13.737Z,85.25
2023-05-14T19:29:41.164Z,86.23
2023-05-14T19:32:10.399Z,85.36
2023-05-14T19:34:37.960Z,84.99
2023-05-14T19:37:06.269Z,86.03
2023-05-14T19:39:33.567Z,85.71
2023-05-14T19:42:01.206Z,86.06
2023-05-14T19:44:30.699Z,87.23
2023-05-14T19:46:58.374Z,86.03
2023-05-14T19:49:27.315Z,86.40
2023-05-14T19:51:54.811Z,85.96
2023-05-14T19:54:22.284Z,85.67
2023-05-14T19:56:49.790Z,86.60
2023-05-14T19:59:17.242Z,86.49
2023-05-14T20:01:44.852Z,86.85
2023-05-14T20:04:13.934Z,87.49
2023-05-14T20:06:47.090Z,87.67
2023-05-14T20:09:15.381Z,87.61
2023-05-14T20:11:42.684Z,87.80
2023-05-14T20:14:10.222Z,88.60
2023-05-14T20:16:38.162Z,87.37
2023-05-14T20:19:05.783Z,89.55
2023-05-14T20:21:33.245Z,91.93
2023-05-14T20:24:02.216Z,89.22
2023-05-14T20:26:30.045Z,92.42
2023-05-14T20:28:57.530Z,89.12
2023-05-14T20:31:25.182Z,87.58
2023-05-14T20:33:52.753Z,88.17
2023-05-14T20:36:20.462Z,88.28
2023-05-14T20:38:48.271Z,88.02
2023-05-14T20:41:17.085Z,88.62
2023-05-14T20:43:44.646Z,88.09
2023-05-14T20:46:12.720Z,89.32
2023-05-14T20:48:40.206Z,88.20
2023-05-14T20:51:07.742Z,88.61
2023-05-14T20:53:35.349Z,88.27
2023-05-14T20:56:02.795Z,88.92
2023-05-14T20:58:31.602Z,89.21
2023-05-14T21:01:00.514Z,89.29
2023-05-14T21:03:28.261Z,89.80
2023-05-14T21:05:56.654Z,88.71
2023-05-14T21:08:24.025Z,89.66
2023-05-14T21:10:51.632Z,89.81
2023-05-14T21:13:19.068Z,92.35
2023-05-14T21:15:47.943Z,91.01
2023-05-14T21:18:15.620Z,89.33
2023-05-14T21:20:43.140Z,89.87
2023-05-14T21:23:10.650Z,89.49
2023-05-14T21:25:38.187Z,90.23
2023-05-14T21:28:05.880Z,90.64
2023-05-14T21:30:33.323Z,91.28
2023-05-14T21:33:02.190Z,95.32
2023-05-14T21:35:29.797Z,92.53
2023-05-14T21:37:57.301Z,93.46
2023-05-14T21:40:24.736Z,98.21
2023-05-14T21:42:52.220Z,92.63
2023-05-14T21:45:21.098Z,91.50
2023-05-14T21:47:49.737Z,91.69
2023-05-14T21:50:18.713Z,91.98
2023-05-14T21:52:46.600Z,91.73
2023-05-14T21:55:14.184Z,91.01
2023-05-14T21:57:41.707Z,94.54
2023-05-14T22:00:12.860Z,93.49
2023-05-14T22:02:40.569Z,94.00
2023-05-14T22:05:08.545Z,92.10
2023-05-14T22:07:37.346Z,91.39
2023-05-14T22:10:05.184Z,91.99
2023-05-14T22:12:32.623Z,91.99
2023-05-14T22:15:00.118Z,92.54
2023-05-14T22:17:27.813Z,91.77
2023-05-14T22:19:55.410Z,91.84
2023-05-14T22:22:25.905Z,90.63
2023-05-14T22:24:54.765Z,90.70
2023-05-14T22:27:24.964Z,90.56
2023-05-14T22:29:52.482Z,90.80
2023-05-14T22:32:19.989Z,90.91
2023-05-14T22:34:47.461Z,90.88
2023-05-14T22:37:15.545Z,90.34
2023-05-14T22:39:43.117Z,92.11
2023-05-14T22:42:11.993Z,91.29
2023-05-14T22:44:39.519Z,90.94
2023-05-14T22:47:07.220Z,91.10
2023-05-14T22:49:34.725Z,91.31
2023-05-14T22:52:02.220Z,91.17
2023-05-14T22:54:29.737Z,100.00
2023-05-14T22:56:57.193Z,99.20
2023-05-14T22:59:25.994Z,96.58
2023-05-14T23:01:53.472Z,92.60
2023-05-14T23:04:21.867Z,91.95
2023-05-14T23:06:49.285Z,91.67
2023-05-14T23:09:16.719Z,90.85
2023-05-14T23:11:44.283Z,91.52
2023-05-14T23:14:11.929Z,91.42
2023-05-14T23:16:40.844Z,92.17
2023-05-14T23:19:08.510Z,91.66
2023-05-14T23:21:36.254Z,92.07
2023-05-14T23:24:03.709Z,92.10
2023-05-14T23:26:31.278Z,90.67
2023-05-14T23:28:58.803Z,90.82
2023-05-14T23:31:26.274Z,91.09
2023-05-14T23:33:55.126Z,91.40
2023-05-14T23:36:22.972Z,90.16
2023-05-14T23:38:50.723Z,90.27
2023-05-14T23:41:18.169Z,90.05
2023-05-14T23:43:45.675Z,90.74
2023-05-14T23:46:13.369Z,90.01
2023-05-14T23:48:40.882Z,89.93
2023-05-14T23:51:09.657Z,89.99
2023-05-14T23:53:37.314Z,89.07
2023-05-14T23:56:04.970Z,89.74
2023-05-14T23:58:32.880Z,89.12
